Time;durP1;ratioP1;P1;durP2;ratioP2;P2;SDS_P1;SDS_P2;PMS_P1;PMS_P2;Temp;Humidity;BMP_temperature;BMP_pressure;BME280_temperature;BME280_humidity;BME280_pressure;Samples;Min_cycle;Max_cycle;Signal;HPM_P1;HPM_P2
2022/12/31 00:01:28;;;;;;;;;;;15.70;57.20;;;;;;5096261;28;19920;-71
2022/12/31 00:03:54;;;;;;;;;;;15.70;57.20;;;;;;5114510;28;19959;-65
2022/12/31 00:09:05;;;;;;;;;;;15.70;57.30;;;;;;5089887;28;19912;-65
2022/12/31 00:11:31;;;;;;;;;;;15.70;57.40;;;;;;5089853;28;20345;-64
2022/12/31 00:13:57;;;;;;;;;;;15.70;57.40;;;;;;5088912;28;19974;-71
2022/12/31 00:19:04;;;;;;;;;;;15.70;57.40;;;;;;5089936;28;20297;-71
2022/12/31 00:21:31;;;;;;;;;;;15.70;57.40;;;;;;5088451;28;19920;-64
2022/12/31 00:23:57;;;;;;;;;;;15.70;57.50;;;;;;5088576;28;19920;-64
2022/12/31 00:26:24;;;;;;;;;;;15.70;57.60;;;;;;5088416;28;19928;-70
2022/12/31 00:28:50;;;;;;;;;;;15.70;57.60;;;;;;5088758;28;20338;-64
2022/12/31 00:31:17;;;;;;;;;;;15.70;57.60;;;;;;5088267;28;19974;-72
2022/12/31 00:33:43;;;;;;;;;;;15.70;57.70;;;;;;5088382;28;20020;-65
2022/12/31 00:36:10;;;;;;;;;;;15.70;57.70;;;;;;5088461;28;20007;-70
2022/12/31 00:38:36;;;;;;;;;;;15.70;57.70;;;;;;5088143;28;20356;-71
2022/12/31 00:41:02;;;;;;;;;;;15.70;57.70;;;;;;5088578;28;19928;-65
2022/12/31 00:43:28;;;;;;;;;;;15.70;57.80;;;;;;5088166;28;19920;-71
2022/12/31 00:45:53;;;;;;;;;;;15.70;57.80;;;;;;5088395;28;19920;-65
2022/12/31 00:48:19;;;;;;;;;;;15.60;57.80;;;;;;5088414;28;19972;-65
2022/12/31 00:50:44;;;;;;;;;;;15.70;57.90;;;;;;5088268;28;20292;-65
2022/12/31 00:53:10;;;;;;;;;;;15.70;57.90;;;;;;5088312;28;20296;-64
2022/12/31 00:55:35;;;;;;;;;;;15.70;57.90;;;;;;5088016;28;19924;-64
2022/12/31 00:58:01;;;;;;;;;;;15.70;57.90;;;;;;5087913;28;19931;-65
2022/12/31 01:00:26;;;;;;;;;;;15.70;58.00;;;;;;5088174;28;20338;-71
2022/12/31 01:02:52;;;;;;;;;;;15.70;58.00;;;;;;5089092;28;19973;-64
2022/12/31 01:05:17;;;;;;;;;;;15.60;58.00;;;;;;5087813;28;19991;-66
2022/12/31 01:07:43;;;;;;;;;;;15.60;58.00;;;;;;5087568;28;19924;-70
2022/12/31 01:10:09;;;;;;;;;;;15.60;58.00;;;;;;5087700;28;19983;-64
2022/12/31 01:12:34;;;;;;;;;;;15.70;58.10;;;;;;5088847;28;19920;-64
2022/12/31 01:15:00;;;;;;;;;;;15.60;58.10;;;;;;5088788;28;19927;-64
2022/12/31 01:17:25;;;;;;;;;;;15.60;58.10;;;;;;5087135;28;20015;-64
2022/12/31 01:19:51;;;;;;;;;;;15.60;58.10;;;;;;5087466;28;19955;-64
2022/12/31 01:22:16;;;;;;;;;;;15.60;58.10;;;;;;5088634;28;19928;-64
2022/12/31 01:24:42;;;;;;;;;;;15.60;58.20;;;;;;5087366;28;20328;-64
2022/12/31 01:27:08;;;;;;;;;;;15.60;58.20;;;;;;5087266;28;19920;-64
2022/12/31 01:29:33;;;;;;;;;;;15.60;58.20;;;;;;5078827;28;20019;-64
2022/12/31 01:31:59;;;;;;;;;;;15.60;58.20;;;;;;5073994;28;20392;-65
2022/12/31 01:34:24;;;;;;;;;;;15.60;58.30;;;;;;5074025;28;19965;-64
2022/12/31 01:36:50;;;;;;;;;;;15.60;58.30;;;;;;5074894;28;19973;-64
2022/12/31 01:39:15;;;;;;;;;;;15.60;58.30;;;;;;5073484;28;19924;-70
2022/12/31 01:41:42;;;;;;;;;;;15.60;58.30;;;;;;5074889;28;19927;-64
2022/12/31 01:46:52;;;;;;;;;;;15.60;58.30;;;;;;5090000;28;20368;-69
2022/12/31 01:52:12;;;;;;;;;;;15.60;58.40;;;;;;5086327;27;1863297;-64
2022/12/31 01:54:39;;;;;;;;;;;15.60;58.50;;;;;;5132798;27;20371;-64
2022/12/31 01:57:06;;;;;;;;;;;15.60;58.50;;;;;;5133142;27;20386;-71
2022/12/31 01:59:31;;;;;;;;;;;15.60;58.50;;;;;;5133045;27;19970;-70
2022/12/31 02:01:58;;;;;;;;;;;15.60;58.50;;;;;;5151358;27;19927;-64
2022/12/31 02:04:24;;;;;;;;;;;15.60;58.50;;;;;;5132595;27;20032;-64
2022/12/31 02:06:54;;;;;;;;;;;15.60;58.60;;;;;;5132708;27;19920;-71
2022/12/31 02:09:19;;;;;;;;;;;15.60;58.60;;;;;;5137679;27;20388;-71
2022/12/31 02:11:45;;;;;;;;;;;15.60;58.70;;;;;;5111956;28;19966;-71
2022/12/31 02:14:13;;;;;;;;;;;15.60;58.70;;;;;;5111879;28;19972;-71
2022/12/31 02:25:17;;;;;;;;;;;15.60;58.70;;;;;;5127499;27;1863581;-64
2022/12/31 02:28:02;;;;;;;;;;;15.60;58.80;;;;;;5174385;27;19929;-64
2022/12/31 02:30:30;;;;;;;;;;;15.60;58.80;;;;;;5174138;27;19963;-71
2022/12/31 02:35:57;;;;;;;;;;;15.60;58.80;;;;;;5089823;28;19912;-64
2022/12/31 02:38:25;;;;;;;;;;;15.60;58.80;;;;;;5088901;28;20333;-71
2022/12/31 02:40:52;;;;;;;;;;;15.50;58.80;;;;;;5088489;28;19928;-64
2022/12/31 02:43:18;;;;;;;;;;;15.60;58.90;;;;;;5089935;28;20379;-71
2022/12/31 02:45:46;;;;;;;;;;;15.60;58.90;;;;;;5088889;28;19926;-64
2022/12/31 02:51:15;;;;;;;;;;;15.60;59.00;;;;;;5089921;28;19919;-71
2022/12/31 02:56:25;;;;;;;;;;;15.60;59.00;;;;;;5110297;27;19919;-71
2022/12/31 03:02:18;;;;;;;;;;;15.60;59.00;;;;;;5108995;28;20341;-71
2022/12/31 03:04:33;;;;;;;;;;;15.60;59.10;;;;;;5110080;28;20337;-64
2022/12/31 03:07:00;;;;;;;;;;;15.50;59.00;;;;;;5109028;28;20007;-64
2022/12/31 03:09:26;;;;;;;;;;;15.50;59.00;;;;;;5108978;28;19924;-71
2022/12/31 03:14:37;;;;;;;;;;;15.60;59.10;;;;;;5108393;28;19935;-65
2022/12/31 03:17:02;;;;;;;;;;;15.50;59.00;;;;;;5108906;28;19924;-64
2022/12/31 03:22:29;;;;;;;;;;;15.50;59.00;;;;;;5108227;28;19963;-64
2022/12/31 03:27:42;;;;;;;;;;;15.50;59.10;;;;;;5108163;28;20391;-64
2022/12/31 03:30:08;;;;;;;;;;;15.50;59.80;;;;;;5108406;28;19924;-64
2022/12/31 03:32:33;;;;;;;;;;;15.50;59.10;;;;;;5109494;28;19947;-64
2022/12/31 03:34:59;;;;;;;;;;;15.50;59.10;;;;;;5108391;28;19924;-64
2022/12/31 03:37:24;;;;;;;;;;;15.50;59.10;;;;;;5109801;28;20417;-71
2022/12/31 03:39:50;;;;;;;;;;;15.50;59.10;;;;;;5108230;28;19920;-71
2022/12/31 03:42:15;;;;;;;;;;;15.50;59.20;;;;;;5108069;28;19920;-65
2022/12/31 03:44:41;;;;;;;;;;;15.50;59.20;;;;;;5108419;28;19935;-71
2022/12/31 03:47:06;;;;;;;;;;;15.50;59.20;;;;;;5109278;28;19924;-64
2022/12/31 03:49:32;;;;;;;;;;;15.50;59.20;;;;;;5109148;28;20299;-64
2022/12/31 03:51:58;;;;;;;;;;;15.50;59.20;;;;;;5109121;28;19920;-64
2022/12/31 03:54:24;;;;;;;;;;;15.50;59.30;;;;;;5108934;28;19924;-72
2022/12/31 03:56:49;;;;;;;;;;;15.50;59.30;;;;;;5109380;28;20024;-64
2022/12/31 03:59:15;;;;;;;;;;;15.50;59.30;;;;;;5109079;28;20016;-64
2022/12/31 04:01:40;;;;;;;;;;;15.50;59.30;;;;;;5108038;28;19920;-64
2022/12/31 04:04:06;;;;;;;;;;;15.50;59.40;;;;;;5107864;28;20419;-64
2022/12/31 04:06:31;;;;;;;;;;;15.50;59.40;;;;;;5100800;28;19927;-64
2022/12/31 04:08:57;;;;;;;;;;;15.50;59.50;;;;;;5095411;28;20347;-64
2022/12/31 04:11:22;;;;;;;;;;;15.50;59.50;;;;;;5095393;28;20186;-71
2022/12/31 04:13:48;;;;;;;;;;;15.50;59.50;;;;;;5095297;28;20376;-65
2022/12/31 04:16:13;;;;;;;;;;;15.40;59.40;;;;;;5093915;28;19931;-64
2022/12/31 04:18:39;;;;;;;;;;;15.50;59.50;;;;;;5095000;28;19965;-64
2022/12/31 04:21:04;;;;;;;;;;;15.50;59.50;;;;;;5095040;28;19924;-65
2022/12/31 04:23:30;;;;;;;;;;;15.50;59.60;;;;;;5093712;28;20015;-71
2022/12/31 04:25:56;;;;;;;;;;;15.50;59.60;;;;;;5095009;28;19965;-64
2022/12/31 04:28:21;;;;;;;;;;;15.50;59.60;;;;;;5093890;28;19920;-64
2022/12/31 04:30:47;;;;;;;;;;;15.50;59.70;;;;;;5093942;28;19924;-64
2022/12/31 04:33:13;;;;;;;;;;;15.50;59.60;;;;;;5094865;28;19924;-71
2022/12/31 04:35:38;;;;;;;;;;;15.50;59.70;;;;;;5094689;28;20439;-71
2022/12/31 04:38:04;;;;;;;;;;;15.50;59.70;;;;;;5093449;28;19927;-64
2022/12/31 04:40:29;;;;;;;;;;;15.50;59.70;;;;;;5093458;28;19924;-65
2022/12/31 04:42:55;;;;;;;;;;;15.50;59.70;;;;;;5094696;28;19920;-71
2022/12/31 04:45:20;;;;;;;;;;;15.50;59.80;;;;;;5094615;28;19920;-71
2022/12/31 04:47:46;;;;;;;;;;;15.50;59.70;;;;;;5094598;28;19928;-71
2022/12/31 04:50:11;;;;;;;;;;;15.50;59.80;;;;;;5094491;28;19927;-64
2022/12/31 04:52:37;;;;;;;;;;;15.50;59.80;;;;;;5094731;28;19920;-70
2022/12/31 04:55:02;;;;;;;;;;;15.50;59.80;;;;;;5092949;28;20123;-64
2022/12/31 04:57:28;;;;;;;;;;;15.40;59.80;;;;;;5093057;28;19920;-64
2022/12/31 04:59:54;;;;;;;;;;;15.50;59.80;;;;;;5092991;28;19920;-64
2022/12/31 05:02:19;;;;;;;;;;;15.50;59.80;;;;;;5093338;28;19935;-64
2022/12/31 05:04:45;;;;;;;;;;;15.50;59.80;;;;;;5094188;28;19920;-64
2022/12/31 05:07:10;;;;;;;;;;;15.40;59.80;;;;;;5094137;28;19967;-65
2022/12/31 05:09:37;;;;;;;;;;;15.50;59.80;;;;;;5093072;28;20283;-69
2022/12/31 05:12:02;;;;;;;;;;;15.40;59.80;;;;;;5094185;28;20367;-64
2022/12/31 05:14:28;;;;;;;;;;;15.40;59.80;;;;;;5094023;28;19924;-64
2022/12/31 05:16:53;;;;;;;;;;;15.40;59.70;;;;;;5093049;28;19920;-64
2022/12/31 05:19:19;;;;;;;;;;;15.50;59.80;;;;;;5091751;28;19920;-72
2022/12/31 05:22:27;;;;;;;;;;;15.40;59.70;;;;;;5092884;28;19920;-64
2022/12/31 05:24:30;;;;;;;;;;;15.40;59.80;;;;;;5092393;28;20011;-64
2022/12/31 05:26:55;;;;;;;;;;;15.40;59.80;;;;;;5093772;28;20014;-64
2022/12/31 05:29:21;;;;;;;;;;;15.50;59.80;;;;;;5093808;28;19967;-64
2022/12/31 05:31:46;;;;;;;;;;;15.50;59.80;;;;;;5092657;28;20007;-64
2022/12/31 05:34:12;;;;;;;;;;;15.40;59.80;;;;;;5093683;28;20019;-64
2022/12/31 05:36:37;;;;;;;;;;;15.60;59.90;;;;;;5092251;28;20368;-64
2022/12/31 05:39:03;;;;;;;;;;;15.50;59.90;;;;;;5092624;28;19924;-65
2022/12/31 05:41:28;;;;;;;;;;;15.40;59.90;;;;;;5092282;28;20010;-64
2022/12/31 05:43:54;;;;;;;;;;;15.40;59.90;;;;;;5093611;28;20022;-66
2022/12/31 05:46:19;;;;;;;;;;;15.40;60.00;;;;;;5092428;28;19920;-64
2022/12/31 05:48:45;;;;;;;;;;;15.40;60.00;;;;;;5092477;28;20378;-64
2022/12/31 05:51:10;;;;;;;;;;;15.40;60.80;;;;;;5093229;28;20431;-64
2022/12/31 05:53:36;;;;;;;;;;;15.40;60.00;;;;;;5093492;28;20031;-64
2022/12/31 05:56:01;;;;;;;;;;;15.40;60.10;;;;;;5092918;28;20288;-65
2022/12/31 05:58:27;;;;;;;;;;;15.40;60.10;;;;;;5092281;28;19920;-70
2022/12/31 06:00:53;;;;;;;;;;;15.50;60.20;;;;;;5093477;28;20309;-64
2022/12/31 06:03:19;;;;;;;;;;;15.40;60.10;;;;;;5093187;28;19927;-65
2022/12/31 06:05:44;;;;;;;;;;;15.40;60.10;;;;;;5093122;28;20279;-64
2022/12/31 06:08:10;;;;;;;;;;;15.40;60.10;;;;;;5091664;28;20410;-70
2022/12/31 06:10:36;;;;;;;;;;;15.40;60.20;;;;;;5093018;28;20264;-65
2022/12/31 06:13:02;;;;;;;;;;;15.40;60.20;;;;;;5092039;28;19920;-70
2022/12/31 06:15:27;;;;;;;;;;;15.40;60.20;;;;;;5090960;28;20421;-64
2022/12/31 06:17:53;;;;;;;;;;;15.40;60.20;;;;;;5092947;28;19924;-64
2022/12/31 06:20:18;;;;;;;;;;;15.40;60.20;;;;;;5092898;28;20371;-64
2022/12/31 06:22:44;;;;;;;;;;;15.40;60.20;;;;;;5092047;28;19920;-64
2022/12/31 06:25:09;;;;;;;;;;;15.40;60.20;;;;;;5092811;28;20014;-65
2022/12/31 06:27:35;;;;;;;;;;;15.40;60.20;;;;;;5091698;28;20014;-65
2022/12/31 06:30:00;;;;;;;;;;;15.40;60.20;;;;;;5092562;28;20264;-64
2022/12/31 06:32:26;;;;;;;;;;;15.40;60.30;;;;;;5092616;28;19965;-64
2022/12/31 06:34:51;;;;;;;;;;;15.40;60.20;;;;;;5093066;28;19970;-64
2022/12/31 06:37:17;;;;;;;;;;;15.40;60.30;;;;;;5091249;28;19927;-64
2022/12/31 06:39:42;;;;;;;;;;;15.40;60.30;;;;;;5091559;28;19930;-70
2022/12/31 06:42:08;;;;;;;;;;;15.40;60.30;;;;;;5092493;28;20003;-64
2022/12/31 06:44:34;;;;;;;;;;;15.40;60.30;;;;;;5092462;28;20014;-64
2022/12/31 06:46:59;;;;;;;;;;;15.40;60.30;;;;;;5091262;28;19926;-65
2022/12/31 06:49:25;;;;;;;;;;;15.40;60.30;;;;;;5091443;28;19967;-64
2022/12/31 06:51:50;;;;;;;;;;;15.40;60.30;;;;;;5092435;28;19920;-64
2022/12/31 06:54:16;;;;;;;;;;;15.40;60.40;;;;;;5090889;28;19924;-70
2022/12/31 06:56:41;;;;;;;;;;;15.40;60.40;;;;;;5092569;28;20015;-64
2022/12/31 06:59:20;;;;;;;;;;;15.40;60.40;;;;;;5091357;28;20376;-71
2022/12/31 07:02:06;;;;;;;;;;;15.40;60.40;;;;;;5091074;28;19921;-70
2022/12/31 07:04:51;;;;;;;;;;;15.40;60.40;;;;;;5092171;28;20012;-64
2022/12/31 07:21:06;;;;;;;;;;;15.30;60.50;;;;;;5110262;27;19919;-65
2022/12/31 07:23:32;;;;;;;;;;;15.40;60.50;;;;;;5108780;28;20018;-64
2022/12/31 07:26:04;;;;;;;;;;;15.40;60.60;;;;;;5109137;28;20016;-64
2022/12/31 07:28:35;;;;;;;;;;;15.40;60.60;;;;;;5108817;28;19920;-65
2022/12/31 07:31:10;;;;;;;;;;;15.40;60.60;;;;;;5108812;28;20375;-64
2022/12/31 07:33:44;;;;;;;;;;;15.40;60.60;;;;;;5108978;28;19969;-65
2022/12/31 07:44:34;;;;;;;;;;;15.40;60.70;;;;;;5127488;27;1866436;-65
2022/12/31 07:47:00;;;;;;;;;;;15.40;60.70;;;;;;5193492;27;20308;-64
2022/12/31 07:49:26;;;;;;;;;;;15.40;60.70;;;;;;5174305;27;19926;-64
2022/12/31 07:51:52;;;;;;;;;;;15.40;60.70;;;;;;5174658;27;19971;-64
2022/12/31 07:54:18;;;;;;;;;;;15.40;60.80;;;;;;5174352;27;20331;-71
2022/12/31 07:56:44;;;;;;;;;;;15.40;60.80;;;;;;5174546;27;19962;-70
2022/12/31 08:01:58;;;;;;;;;;;15.30;60.70;;;;;;5089903;28;19919;-64
2022/12/31 08:07:31;;;;;;;;;;;15.40;60.80;;;;;;5090033;28;19912;-65
2022/12/31 08:10:02;;;;;;;;;;;15.30;60.80;;;;;;5088287;28;20375;-65
2022/12/31 08:12:31;;;;;;;;;;;15.40;60.90;;;;;;5088632;28;19920;-70
2022/12/31 08:14:56;;;;;;;;;;;15.40;60.90;;;;;;5088773;28;19921;-64
2022/12/31 08:17:22;;;;;;;;;;;15.30;60.90;;;;;;5088390;28;19921;-65
2022/12/31 08:19:48;;;;;;;;;;;15.40;60.90;;;;;;5088703;28;19927;-64
2022/12/31 08:22:33;;;;;;;;;;;15.40;60.90;;;;;;5088683;28;20417;-64
2022/12/31 08:25:18;;;;;;;;;;;15.40;60.90;;;;;;5088101;28;19966;-64
2022/12/31 08:30:39;;;;;;;;;;;15.40;61.00;;;;;;5110325;27;19918;-64
2022/12/31 08:36:05;;;;;;;;;;;15.40;61.10;;;;;;5089922;28;19919;-70
2022/12/31 08:38:50;;;;;;;;;;;15.30;61.00;;;;;;5105185;28;20027;-64
2022/12/31 08:41:22;;;;;;;;;;;15.40;61.10;;;;;;5088298;28;20376;-64
2022/12/31 08:46:32;;;;;;;;;;;15.40;61.20;;;;;;5110295;27;19938;-70
2022/12/31 08:48:57;;;;;;;;;;;15.40;61.20;;;;;;5109080;28;19963;-64
2022/12/31 08:51:24;;;;;;;;;;;15.30;61.20;;;;;;5109206;28;19963;-64
2022/12/31 08:53:50;;;;;;;;;;;15.40;61.30;;;;;;5108881;28;19970;-70
2022/12/31 09:01:42;;;;;;;;;;;15.30;61.30;;;;;;5110253;27;19918;-64
2022/12/31 09:04:27;;;;;;;;;;;15.40;61.40;;;;;;5108949;28;20406;-64
2022/12/31 09:06:58;;;;;;;;;;;15.40;61.50;;;;;;5108955;28;19920;-64
2022/12/31 09:09:32;;;;;;;;;;;15.40;61.60;;;;;;5108922;28;19927;-64
2022/12/31 09:12:18;;;;;;;;;;;15.30;61.60;;;;;;5108711;28;20453;-70
2022/12/31 09:17:44;;;;;;;;;;;15.40;61.70;;;;;;5089881;28;19912;-64
2022/12/31 09:20:15;;;;;;;;;;;15.30;61.70;;;;;;5089914;28;20441;-71
2022/12/31 09:22:41;;;;;;;;;;;15.40;61.90;;;;;;5088793;28;19981;-64
2022/12/31 09:25:11;;;;;;;;;;;15.40;61.90;;;;;;5088534;28;19925;-64
2022/12/31 09:27:41;;;;;;;;;;;15.40;62.00;;;;;;5088658;28;19925;-65
2022/12/31 09:30:09;;;;;;;;;;;15.40;62.10;;;;;;5088426;28;19924;-64
2022/12/31 09:32:40;;;;;;;;;;;15.40;62.00;;;;;;5088618;28;19920;-64
2022/12/31 09:35:26;;;;;;;;;;;15.40;62.10;;;;;;5088271;28;19924;-71
2022/12/31 09:38:11;;;;;;;;;;;15.40;62.10;;;;;;5087979;28;19973;-71
2022/12/31 09:48:56;;;;;;;;;;;15.40;62.20;;;;;;5127028;27;1877735;-64
2022/12/31 09:51:41;;;;;;;;;;;15.40;62.20;;;;;;5174462;27;19963;-71
2022/12/31 09:54:18;;;;;;;;;;;15.40;62.30;;;;;;5174260;27;19919;-64
2022/12/31 09:56:48;;;;;;;;;;;15.40;62.30;;;;;;5174665;27;19919;-71
2022/12/31 10:02:01;;;;;;;;;;;15.40;62.30;;;;;;5089988;28;20380;-64
2022/12/31 10:04:32;;;;;;;;;;;15.40;62.30;;;;;;5088549;28;20006;-64
2022/12/31 10:12:45;;;;;;;;;;;15.40;62.50;;;;;;5089317;28;19919;-64
2022/12/31 10:15:29;;;;;;;;;;;15.40;62.60;;;;;;5089879;28;20337;-64
2022/12/31 10:18:14;;;;;;;;;;;15.40;62.60;;;;;;5089727;28;20325;-71
2022/12/31 10:21:00;;;;;;;;;;;15.40;62.50;;;;;;5087633;28;19956;-70
2022/12/31 10:23:36;;;;;;;;;;;15.40;62.60;;;;;;5088685;28;19920;-64
2022/12/31 10:28:54;;;;;;;;;;;15.40;62.70;;;;;;5110272;27;20396;-65
2022/12/31 10:34:18;;;;;;;;;;;15.40;62.70;;;;;;5127597;27;1863943;-64
2022/12/31 10:42:31;;;;;;;;;;;15.40;62.70;;;;;;5128055;27;1860336;-64
2022/12/31 10:50:44;;;;;;;;;;;15.40;62.90;;;;;;5089756;28;20390;-65
2022/12/31 10:53:29;;;;;;;;;;;15.40;62.70;;;;;;5105151;28;19924;-64
2022/12/31 10:56:06;;;;;;;;;;;15.40;62.90;;;;;;5086802;28;19924;-64
2022/12/31 10:58:52;;;;;;;;;;;15.50;62.90;;;;;;5088694;28;19929;-65
2022/12/31 11:01:21;;;;;;;;;;;15.50;63.00;;;;;;5087540;28;19935;-71
2022/12/31 11:06:49;;;;;;;;;;;15.50;63.00;;;;;;5089003;28;20380;-64
2022/12/31 11:14:47;;;;;;;;;;;15.40;63.00;;;;;;5129510;27;1863879;-65
2022/12/31 11:17:32;;;;;;;;;;;15.50;63.30;;;;;;5174367;27;19966;-65
2022/12/31 11:25:29;;;;;;;;;;;15.40;63.30;;;;;;5110357;27;20298;-65
2022/12/31 11:33:26;;;;;;;;;;;15.50;63.30;;;;;;5089226;28;19941;-65
2022/12/31 11:36:06;;;;;;;;;;;15.50;63.30;;;;;;5088914;28;20344;-65
2022/12/31 11:38:34;;;;;;;;;;;15.50;63.40;;;;;;5088758;28;19927;-65
2022/12/31 11:41:20;;;;;;;;;;;15.50;63.40;;;;;;5088857;28;19920;-66
2022/12/31 11:43:52;;;;;;;;;;;15.50;63.30;;;;;;5089446;28;19925;-71
2022/12/31 11:49:07;;;;;;;;;;;15.50;63.30;;;;;;5127217;27;1871004;-65
2022/12/31 11:57:13;;;;;;;;;;;15.50;63.30;;;;;;5089949;28;19919;-65
2022/12/31 11:59:39;;;;;;;;;;;15.50;63.40;;;;;;5088708;28;19920;-71
2022/12/31 12:02:23;;;;;;;;;;;15.50;63.40;;;;;;5105582;28;19986;-70
2022/12/31 12:04:49;;;;;;;;;;;15.50;63.40;;;;;;5088464;28;19926;-64
2022/12/31 12:07:15;;;;;;;;;;;15.50;63.40;;;;;;5089705;28;20011;-71
2022/12/31 12:09:42;;;;;;;;;;;15.50;63.40;;;;;;5089926;28;19921;-71
2022/12/31 12:12:08;;;;;;;;;;;15.50;63.40;;;;;;5088449;28;19920;-65
2022/12/31 12:14:36;;;;;;;;;;;15.50;63.40;;;;;;5088239;28;19928;-70
2022/12/31 12:17:05;;;;;;;;;;;15.50;63.40;;;;;;5088687;28;20023;-65
2022/12/31 12:19:31;;;;;;;;;;;15.50;63.50;;;;;;5089445;28;19931;-65
2022/12/31 12:21:57;;;;;;;;;;;15.60;63.50;;;;;;5089358;28;20462;-64
2022/12/31 12:24:25;;;;;;;;;;;15.60;63.60;;;;;;5088435;28;19967;-65
2022/12/31 12:26:51;;;;;;;;;;;15.60;63.70;;;;;;5089312;28;19924;-65
2022/12/31 12:32:01;;;;;;;;;;;15.60;64.10;;;;;;5089906;28;20372;-71
2022/12/31 12:34:28;;;;;;;;;;;15.50;63.70;;;;;;5088457;28;20384;-64
2022/12/31 12:36:53;;;;;;;;;;;15.60;64.00;;;;;;5088875;28;20000;-70
2022/12/31 12:39:21;;;;;;;;;;;15.60;64.10;;;;;;5088465;28;20028;-70
2022/12/31 12:41:46;;;;;;;;;;;15.60;64.10;;;;;;5088753;28;19927;-65
2022/12/31 12:44:15;;;;;;;;;;;15.60;63.90;;;;;;5088326;28;20007;-65
2022/12/31 12:46:43;;;;;;;;;;;15.60;64.00;;;;;;5089701;28;19920;-64
2022/12/31 12:49:28;;;;;;;;;;;15.60;64.00;;;;;;5088565;28;19920;-65
2022/12/31 12:52:14;;;;;;;;;;;15.60;64.10;;;;;;5088126;28;19924;-70
2022/12/31 12:54:59;;;;;;;;;;;15.60;64.00;;;;;;5089279;28;19931;-64
2022/12/31 12:57:34;;;;;;;;;;;15.60;64.00;;;;;;5089166;28;20438;-70
2022/12/31 13:00:05;;;;;;;;;;;15.60;64.00;;;;;;5089506;28;20357;-72
2022/12/31 13:02:50;;;;;;;;;;;15.60;64.00;;;;;;5105146;28;19966;-73
2022/12/31 13:05:20;;;;;;;;;;;15.50;64.20;;;;;;5088998;28;19921;-65
2022/12/31 13:08:05;;;;;;;;;;;15.60;64.30;;;;;;5089290;28;20292;-64
2022/12/31 13:13:32;;;;;;;;;;;15.60;64.30;;;;;;5110322;27;20383;-72
2022/12/31 13:21:22;;;;;;;;;;;15.60;64.30;;;;;;5133503;27;1866545;-64
2022/12/31 13:23:55;;;;;;;;;;;15.60;64.30;;;;;;5174532;27;20091;-64
2022/12/31 13:29:02;;;;;;;;;;;15.60;64.30;;;;;;5110269;27;19944;-65
2022/12/31 13:31:30;;;;;;;;;;;15.50;64.30;;;;;;5108935;28;20356;-64
2022/12/31 13:33:59;;;;;;;;;;;15.60;64.30;;;;;;5109304;28;19946;-65
2022/12/31 13:36:26;;;;;;;;;;;15.60;64.30;;;;;;5109128;28;19920;-65
2022/12/31 13:38:53;;;;;;;;;;;15.50;64.30;;;;;;5109137;28;19969;-70
2022/12/31 13:41:23;;;;;;;;;;;15.60;64.30;;;;;;5108728;28;20428;-64
2022/12/31 13:44:09;;;;;;;;;;;15.60;64.30;;;;;;5109959;28;19920;-64
2022/12/31 13:46:43;;;;;;;;;;;15.60;64.30;;;;;;5108351;28;20405;-64
2022/12/31 13:49:14;;;;;;;;;;;15.60;64.30;;;;;;5109006;28;19927;-70
2022/12/31 13:54:29;;;;;;;;;;;15.60;64.30;;;;;;5110309;27;19938;-68
2022/12/31 13:56:59;;;;;;;;;;;15.60;64.30;;;;;;5109066;28;19920;-68
2022/12/31 13:59:28;;;;;;;;;;;15.60;64.50;;;;;;5108945;28;19946;-64
2022/12/31 14:01:58;;;;;;;;;;;15.60;64.60;;;;;;5109126;28;19926;-64
2022/12/31 14:04:26;;;;;;;;;;;15.60;64.60;;;;;;5108860;28;20374;-64
2022/12/31 14:09:33;;;;;;;;;;;15.60;64.70;;;;;;5089972;28;19918;-64
2022/12/31 14:12:19;;;;;;;;;;;15.60;64.70;;;;;;5088197;28;19920;-64
2022/12/31 14:17:45;;;;;;;;;;;15.60;64.90;;;;;;5127607;27;1861878;-65
2022/12/31 14:20:31;;;;;;;;;;;15.60;64.90;;;;;;5174400;27;19922;-70
2022/12/31 14:25:48;;;;;;;;;;;15.50;64.80;;;;;;5110249;27;19934;-64
2022/12/31 14:28:16;;;;;;;;;;;15.60;64.90;;;;;;5108904;28;19934;-70
2022/12/31 14:30:43;;;;;;;;;;;15.60;64.90;;;;;;5109334;28;20385;-72
2022/12/31 14:33:28;;;;;;;;;;;15.60;65.00;;;;;;5109150;28;20329;-64
2022/12/31 14:36:14;;;;;;;;;;;15.60;65.10;;;;;;5109113;28;19924;-64
2022/12/31 14:38:50;;;;;;;;;;;15.60;65.00;;;;;;5108513;28;19950;-65
2022/12/31 14:41:25;;;;;;;;;;;15.60;65.00;;;;;;5110377;28;20260;-64
2022/12/31 14:44:00;;;;;;;;;;;15.70;65.00;;;;;;5108657;28;19924;-64
2022/12/31 14:46:29;;;;;;;;;;;15.60;65.00;;;;;;5108949;28;20189;-64
2022/12/31 14:51:36;;;;;;;;;;;15.60;65.10;;;;;;5110291;27;19918;-64
2022/12/31 14:54:01;;;;;;;;;;;15.60;65.10;;;;;;5108851;28;19919;-65
2022/12/31 14:56:31;;;;;;;;;;;15.60;65.20;;;;;;5108884;28;19924;-64
2022/12/31 14:58:58;;;;;;;;;;;15.60;65.20;;;;;;5108732;28;19920;-64
2022/12/31 15:01:25;;;;;;;;;;;15.60;65.30;;;;;;5109239;28;20260;-64
2022/12/31 15:03:51;;;;;;;;;;;15.60;65.30;;;;;;5108777;28;19928;-65
2022/12/31 15:09:19;;;;;;;;;;;15.60;65.30;;;;;;5089919;28;19944;-65
2022/12/31 15:17:27;;;;;;;;;;;15.60;65.30;;;;;;5130831;27;19919;-71
2022/12/31 15:28:29;;;;;;;;;;;15.60;65.50;;;;;;5089978;28;19919;-65
2022/12/31 15:31:01;;;;;;;;;;;15.60;65.30;;;;;;5087925;28;20338;-72
2022/12/31 15:33:33;;;;;;;;;;;15.60;65.50;;;;;;5088819;28;20404;-65
2022/12/31 15:36:10;;;;;;;;;;;15.60;65.50;;;;;;5088505;28;19920;-65
2022/12/31 15:38:36;;;;;;;;;;;15.60;65.50;;;;;;5088788;28;19920;-64
2022/12/31 15:46:40;;;;;;;;;;;15.60;65.60;;;;;;5089973;28;19919;-71
2022/12/31 15:49:10;;;;;;;;;;;15.60;65.70;;;;;;5088714;28;20372;-64
2022/12/31 15:51:42;;;;;;;;;;;15.60;65.70;;;;;;5088516;28;19920;-65
2022/12/31 15:54:18;;;;;;;;;;;15.60;65.70;;;;;;5088527;28;19920;-70
2022/12/31 15:56:46;;;;;;;;;;;15.60;65.80;;;;;;5088420;28;19995;-68
2022/12/31 15:59:13;;;;;;;;;;;15.60;65.80;;;;;;5088423;28;19924;-71
2022/12/31 16:01:40;;;;;;;;;;;15.60;65.80;;;;;;5088740;28;20011;-64
2022/12/31 16:04:07;;;;;;;;;;;15.70;65.80;;;;;;5088272;28;19930;-65
2022/12/31 16:06:35;;;;;;;;;;;15.60;65.80;;;;;;5089445;28;19925;-65
2022/12/31 16:09:01;;;;;;;;;;;15.60;65.80;;;;;;5088526;28;20019;-64
2022/12/31 16:11:29;;;;;;;;;;;15.60;65.80;;;;;;5089599;28;19921;-67
2022/12/31 16:13:56;;;;;;;;;;;15.60;65.80;;;;;;5088137;28;20269;-65
2022/12/31 16:16:23;;;;;;;;;;;15.60;65.80;;;;;;5089317;28;19928;-65
2022/12/31 16:18:50;;;;;;;;;;;15.60;65.80;;;;;;5088386;28;19927;-65
2022/12/31 16:21:24;;;;;;;;;;;15.70;65.80;;;;;;5088135;28;20424;-65
2022/12/31 16:23:50;;;;;;;;;;;15.60;65.70;;;;;;5088304;28;19920;-71
2022/12/31 16:26:16;;;;;;;;;;;15.70;65.80;;;;;;5089043;28;20380;-65
2022/12/31 16:28:46;;;;;;;;;;;15.60;65.80;;;;;;5089257;28;19921;-65
2022/12/31 16:31:15;;;;;;;;;;;15.70;65.80;;;;;;5087782;28;19920;-65
2022/12/31 16:33:40;;;;;;;;;;;15.60;65.80;;;;;;5089079;28;19931;-71
2022/12/31 16:36:15;;;;;;;;;;;15.60;65.70;;;;;;5087754;28;19920;-71
2022/12/31 16:38:40;;;;;;;;;;;15.60;65.60;;;;;;5089119;28;19924;-65
2022/12/31 16:41:15;;;;;;;;;;;15.60;65.70;;;;;;5087613;28;20461;-65
2022/12/31 16:43:42;;;;;;;;;;;15.60;65.70;;;;;;5087817;28;19944;-65
2022/12/31 16:48:50;;;;;;;;;;;15.70;65.80;;;;;;5127381;27;1870118;-71
2022/12/31 16:51:18;;;;;;;;;;;15.70;65.80;;;;;;5174381;27;19965;-71
2022/12/31 16:53:44;;;;;;;;;;;15.60;65.80;;;;;;5174341;27;19919;-70
2022/12/31 16:56:10;;;;;;;;;;;15.70;65.70;;;;;;5174331;27;19928;-65
2022/12/31 16:58:38;;;;;;;;;;;15.70;65.80;;;;;;5174578;27;19968;-70
2022/12/31 17:01:22;;;;;;;;;;;15.70;65.70;;;;;;5174200;27;19918;-71
2022/12/31 17:03:51;;;;;;;;;;;15.60;65.70;;;;;;5174458;27;19919;-65
2022/12/31 17:06:17;;;;;;;;;;;15.70;65.80;;;;;;5174268;27;19989;-71
2022/12/31 17:22:16;;;;;;;;;;;15.60;65.80;;;;;;5089918;28;19919;-65
2022/12/31 17:24:42;;;;;;;;;;;15.70;65.80;;;;;;5088472;28;19966;-65
2022/12/31 17:27:08;;;;;;;;;;;15.70;65.80;;;;;;5088800;28;19968;-65
2022/12/31 17:29:34;;;;;;;;;;;15.70;65.80;;;;;;5088701;28;19924;-65
2022/12/31 17:32:01;;;;;;;;;;;15.60;65.80;;;;;;5088708;28;20342;-65
2022/12/31 17:34:31;;;;;;;;;;;15.60;65.80;;;;;;5088558;28;19973;-65
2022/12/31 17:39:40;;;;;;;;;;;15.60;65.80;;;;;;5089852;28;20473;-71
2022/12/31 17:42:07;;;;;;;;;;;15.70;65.80;;;;;;5088572;28;19978;-65
2022/12/31 17:44:34;;;;;;;;;;;15.60;65.80;;;;;;5089796;28;19920;-72
2022/12/31 17:47:01;;;;;;;;;;;15.70;65.80;;;;;;5088504;28;19924;-65
2022/12/31 17:49:28;;;;;;;;;;;15.60;65.70;;;;;;5089598;28;19955;-65
2022/12/31 17:51:54;;;;;;;;;;;15.70;65.70;;;;;;5088581;28;19920;-65
2022/12/31 17:54:19;;;;;;;;;;;15.60;65.70;;;;;;5089739;28;20376;-66
2022/12/31 17:56:46;;;;;;;;;;;15.70;65.80;;;;;;5088470;28;20011;-71
2022/12/31 17:59:15;;;;;;;;;;;15.60;65.60;;;;;;5088096;28;20021;-65
2022/12/31 18:01:41;;;;;;;;;;;15.70;65.70;;;;;;5088199;28;19920;-65